sensor_id;sensor_type;location;lat;lon;timestamp;P1;durP1;ratioP1;P2;durP2;ratioP2
24143;SDS011;12307;50.828;6.080;2023-07-16T00:00:00;0.68;;;0.60;;
24143;SDS011;12307;50.828;6.080;2023-07-16T00:02:26;0.80;;;0.75;;
24143;SDS011;12307;50.828;6.080;2023-07-16T00:04:51;0.70;;;0.70;;
24143;SDS011;12307;50.828;6.080;2023-07-16T00:07:18;0.65;;;0.63;;
24143;SDS011;12307;50.828;6.080;2023-07-16T00:09:44;0.77;;;0.77;;
24143;SDS011;12307;50.828;6.080;2023-07-16T00:12:10;0.60;;;0.60;;
24143;SDS011;12307;50.828;6.080;2023-07-16T00:14:35;0.73;;;0.73;;
24143;SDS011;12307;50.828;6.080;2023-07-16T00:17:01;0.77;;;0.77;;
24143;SDS011;12307;50.828;6.080;2023-07-16T00:19:27;0.60;;;0.60;;
24143;SDS011;12307;50.828;6.080;2023-07-16T00:21:53;0.70;;;0.70;;
24143;SDS011;12307;50.828;6.080;2023-07-16T00:24:20;0.57;;;0.57;;
24143;SDS011;12307;50.828;6.080;2023-07-16T00:26:45;0.70;;;0.60;;
24143;SDS011;12307;50.828;6.080;2023-07-16T00:29:11;0.65;;;0.65;;
24143;SDS011;12307;50.828;6.080;2023-07-16T00:31:37;0.70;;;0.70;;
24143;SDS011;12307;50.828;6.080;2023-07-16T00:34:02;0.80;;;0.70;;
24143;SDS011;12307;50.828;6.080;2023-07-16T00:36:28;0.60;;;0.60;;
24143;SDS011;12307;50.828;6.080;2023-07-16T00:38:54;0.60;;;0.60;;
24143;SDS011;12307;50.828;6.080;2023-07-16T00:41:21;0.60;;;0.60;;
24143;SDS011;12307;50.828;6.080;2023-07-16T00:43:47;0.70;;;0.70;;
24143;SDS011;12307;50.828;6.080;2023-07-16T00:46:12;0.73;;;0.73;;
24143;SDS011;12307;50.828;6.080;2023-07-16T00:48:39;0.70;;;0.70;;
24143;SDS011;12307;50.828;6.080;2023-07-16T00:51:05;0.77;;;0.77;;
24143;SDS011;12307;50.828;6.080;2023-07-16T00:53:32;1.50;;;0.80;;
24143;SDS011;12307;50.828;6.080;2023-07-16T00:55:58;0.70;;;0.70;;
24143;SDS011;12307;50.828;6.080;2023-07-16T00:58:25;0.70;;;0.70;;
24143;SDS011;12307;50.828;6.080;2023-07-16T01:00:51;0.98;;;0.70;;
24143;SDS011;12307;50.828;6.080;2023-07-16T01:03:16;1.23;;;0.80;;
24143;SDS011;12307;50.828;6.080;2023-07-16T01:05:45;0.55;;;0.55;;
24143;SDS011;12307;50.828;6.080;2023-07-16T01:08:18;0.85;;;0.40;;
24143;SDS011;12307;50.828;6.080;2023-07-16T01:10:52;0.85;;;0.73;;
24143;SDS011;12307;50.828;6.080;2023-07-16T01:13:18;0.80;;;0.60;;
24143;SDS011;12307;50.828;6.080;2023-07-16T01:15:46;1.60;;;0.80;;
24143;SDS011;12307;50.828;6.080;2023-07-16T01:18:12;0.90;;;0.70;;
24143;SDS011;12307;50.828;6.080;2023-07-16T01:20:37;1.45;;;0.68;;
24143;SDS011;12307;50.828;6.080;2023-07-16T01:23:24;0.60;;;0.60;;
24143;SDS011;12307;50.828;6.080;2023-07-16T01:26:13;1.05;;;0.80;;
24143;SDS011;12307;50.828;6.080;2023-07-16T01:31:52;0.60;;;0.50;;
24143;SDS011;12307;50.828;6.080;2023-07-16T01:34:20;0.50;;;0.50;;
24143;SDS011;12307;50.828;6.080;2023-07-16T01:36:47;0.70;;;0.70;;
24143;SDS011;12307;50.828;6.080;2023-07-16T01:39:14;0.65;;;0.65;;
24143;SDS011;12307;50.828;6.080;2023-07-16T01:41:40;0.60;;;0.60;;
24143;SDS011;12307;50.828;6.080;2023-07-16T01:44:06;0.60;;;0.60;;
24143;SDS011;12307;50.828;6.080;2023-07-16T01:46:31;0.98;;;0.80;;
24143;SDS011;12307;50.828;6.080;2023-07-16T01:48:58;0.90;;;0.75;;
24143;SDS011;12307;50.828;6.080;2023-07-16T01:51:24;0.63;;;0.63;;
24143;SDS011;12307;50.828;6.080;2023-07-16T01:53:50;0.65;;;0.55;;
24143;SDS011;12307;50.828;6.080;2023-07-16T01:56:16;0.70;;;0.70;;
24143;SDS011;12307;50.828;6.080;2023-07-16T01:58:41;0.68;;;0.68;;
24143;SDS011;12307;50.828;6.080;2023-07-16T02:01:07;0.70;;;0.60;;
24143;SDS011;12307;50.828;6.080;2023-07-16T02:03:33;0.55;;;0.55;;
24143;SDS011;12307;50.828;6.080;2023-07-16T02:06:00;0.70;;;0.70;;
24143;SDS011;12307;50.828;6.080;2023-07-16T02:08:26;1.08;;;0.80;;
24143;SDS011;12307;50.828;6.080;2023-07-16T02:10:51;0.77;;;0.77;;
24143;SDS011;12307;50.828;6.080;2023-07-16T02:13:17;1.08;;;0.70;;
24143;SDS011;12307;50.828;6.080;2023-07-16T02:15:43;0.77;;;0.70;;
24143;SDS011;12307;50.828;6.080;2023-07-16T02:18:09;1.25;;;0.65;;
24143;SDS011;12307;50.828;6.080;2023-07-16T02:20:35;0.80;;;0.80;;
24143;SDS011;12307;50.828;6.080;2023-07-16T02:23:02;0.80;;;0.70;;
24143;SDS011;12307;50.828;6.080;2023-07-16T02:25:28;0.98;;;0.70;;
24143;SDS011;12307;50.828;6.080;2023-07-16T02:27:53;0.65;;;0.65;;
24143;SDS011;12307;50.828;6.080;2023-07-16T02:30:19;1.05;;;0.70;;
24143;SDS011;12307;50.828;6.080;2023-07-16T02:32:45;0.70;;;0.70;;
24143;SDS011;12307;50.828;6.080;2023-07-16T02:35:11;0.80;;;0.77;;
24143;SDS011;12307;50.828;6.080;2023-07-16T02:37:36;0.77;;;0.57;;
24143;SDS011;12307;50.828;6.080;2023-07-16T02:40:05;0.80;;;0.73;;
24143;SDS011;12307;50.828;6.080;2023-07-16T02:42:32;0.80;;;0.80;;
24143;SDS011;12307;50.828;6.080;2023-07-16T02:44:57;0.52;;;0.52;;
24143;SDS011;12307;50.828;6.080;2023-07-16T02:47:23;0.75;;;0.73;;
24143;SDS011;12307;50.828;6.080;2023-07-16T02:49:50;0.80;;;0.80;;
24143;SDS011;12307;50.828;6.080;2023-07-16T02:52:17;1.10;;;0.60;;
24143;SDS011;12307;50.828;6.080;2023-07-16T02:54:43;0.60;;;0.60;;
24143;SDS011;12307;50.828;6.080;2023-07-16T02:57:10;0.73;;;0.70;;
24143;SDS011;12307;50.828;6.080;2023-07-16T02:59:35;0.60;;;0.60;;
24143;SDS011;12307;50.828;6.080;2023-07-16T03:02:01;0.75;;;0.68;;
24143;SDS011;12307;50.828;6.080;2023-07-16T03:04:27;0.65;;;0.63;;
24143;SDS011;12307;50.828;6.080;2023-07-16T03:06:53;0.50;;;0.50;;
24143;SDS011;12307;50.828;6.080;2023-07-16T03:09:18;1.75;;;0.70;;
24143;SDS011;12307;50.828;6.080;2023-07-16T03:11:44;1.15;;;0.63;;
24143;SDS011;12307;50.828;6.080;2023-07-16T03:14:12;0.60;;;0.60;;
24143;SDS011;12307;50.828;6.080;2023-07-16T03:16:37;0.98;;;0.85;;
24143;SDS011;12307;50.828;6.080;2023-07-16T03:19:03;0.80;;;0.68;;
24143;SDS011;12307;50.828;6.080;2023-07-16T03:21:29;0.70;;;0.70;;
24143;SDS011;12307;50.828;6.080;2023-07-16T03:23:54;1.25;;;0.82;;
24143;SDS011;12307;50.828;6.080;2023-07-16T03:26:20;0.80;;;0.80;;
24143;SDS011;12307;50.828;6.080;2023-07-16T03:28:46;0.90;;;0.80;;
24143;SDS011;12307;50.828;6.080;2023-07-16T03:31:13;0.80;;;0.70;;
24143;SDS011;12307;50.828;6.080;2023-07-16T03:33:39;0.75;;;0.70;;
24143;SDS011;12307;50.828;6.080;2023-07-16T03:36:04;0.60;;;0.60;;
24143;SDS011;12307;50.828;6.080;2023-07-16T03:38:30;1.20;;;0.70;;
24143;SDS011;12307;50.828;6.080;2023-07-16T03:40:56;0.70;;;0.70;;
24143;SDS011;12307;50.828;6.080;2023-07-16T03:43:22;0.98;;;0.70;;
24143;SDS011;12307;50.828;6.080;2023-07-16T03:45:47;0.60;;;0.60;;
24143;SDS011;12307;50.828;6.080;2023-07-16T03:48:15;0.50;;;0.50;;
24143;SDS011;12307;50.828;6.080;2023-07-16T03:50:41;0.70;;;0.60;;
24143;SDS011;12307;50.828;6.080;2023-07-16T03:53:07;1.20;;;0.60;;
24143;SDS011;12307;50.828;6.080;2023-07-16T03:55:33;0.70;;;0.70;;
24143;SDS011;12307;50.828;6.080;2023-07-16T03:57:58;0.68;;;0.68;;
24143;SDS011;12307;50.828;6.080;2023-07-16T04:00:24;0.70;;;0.70;;
24143;SDS011;12307;50.828;6.080;2023-07-16T04:02:50;0.70;;;0.60;;
24143;SDS011;12307;50.828;6.080;2023-07-16T04:05:17;0.90;;;0.80;;
24143;SDS011;12307;50.828;6.080;2023-07-16T04:07:43;1.17;;;0.88;;
24143;SDS011;12307;50.828;6.080;2023-07-16T04:10:09;1.52;;;0.88;;
24143;SDS011;12307;50.828;6.080;2023-07-16T04:12:35;0.90;;;0.57;;
24143;SDS011;12307;50.828;6.080;2023-07-16T04:15:01;0.77;;;0.75;;
24143;SDS011;12307;50.828;6.080;2023-07-16T04:17:32;1.02;;;0.70;;
24143;SDS011;12307;50.828;6.080;2023-07-16T04:19:58;0.70;;;0.70;;
24143;SDS011;12307;50.828;6.080;2023-07-16T04:22:25;0.85;;;0.80;;
24143;SDS011;12307;50.828;6.080;2023-07-16T04:24:51;0.88;;;0.80;;
24143;SDS011;12307;50.828;6.080;2023-07-16T04:27:17;1.48;;;0.80;;
24143;SDS011;12307;50.828;6.080;2023-07-16T04:29:42;0.82;;;0.73;;
24143;SDS011;12307;50.828;6.080;2023-07-16T04:32:08;1.15;;;0.80;;
24143;SDS011;12307;50.828;6.080;2023-07-16T04:34:34;0.90;;;0.80;;
24143;SDS011;12307;50.828;6.080;2023-07-16T04:37:00;1.13;;;0.80;;
24143;SDS011;12307;50.828;6.080;2023-07-16T04:39:27;0.90;;;0.75;;
24143;SDS011;12307;50.828;6.080;2023-07-16T04:41:52;0.68;;;0.68;;
24143;SDS011;12307;50.828;6.080;2023-07-16T04:44:18;1.38;;;0.88;;
24143;SDS011;12307;50.828;6.080;2023-07-16T04:46:44;1.02;;;0.70;;
24143;SDS011;12307;50.828;6.080;2023-07-16T04:49:10;1.10;;;0.90;;
24143;SDS011;12307;50.828;6.080;2023-07-16T04:51:36;1.08;;;0.80;;
24143;SDS011;12307;50.828;6.080;2023-07-16T04:54:02;0.70;;;0.70;;
24143;SDS011;12307;50.828;6.080;2023-07-16T04:56:29;1.05;;;0.80;;
24143;SDS011;12307;50.828;6.080;2023-07-16T04:58:55;0.70;;;0.63;;
24143;SDS011;12307;50.828;6.080;2023-07-16T05:01:20;1.00;;;0.80;;
24143;SDS011;12307;50.828;6.080;2023-07-16T05:03:46;0.70;;;0.70;;
24143;SDS011;12307;50.828;6.080;2023-07-16T05:06:12;0.90;;;0.70;;
24143;SDS011;12307;50.828;6.080;2023-07-16T05:08:37;1.45;;;0.80;;
24143;SDS011;12307;50.828;6.080;2023-07-16T05:11:03;0.90;;;0.60;;
24143;SDS011;12307;50.828;6.080;2023-07-16T05:13:30;1.00;;;0.80;;
24143;SDS011;12307;50.828;6.080;2023-07-16T05:15:56;0.70;;;0.70;;
24143;SDS011;12307;50.828;6.080;2023-07-16T05:18:22;0.80;;;0.75;;
24143;SDS011;12307;50.828;6.080;2023-07-16T05:20:47;0.77;;;0.73;;
24143;SDS011;12307;50.828;6.080;2023-07-16T05:23:14;0.70;;;0.70;;
24143;SDS011;12307;50.828;6.080;2023-07-16T05:25:44;0.70;;;0.70;;
24143;SDS011;12307;50.828;6.080;2023-07-16T05:28:11;1.02;;;0.80;;
24143;SDS011;12307;50.828;6.080;2023-07-16T05:30:38;1.10;;;0.80;;
24143;SDS011;12307;50.828;6.080;2023-07-16T05:33:03;0.70;;;0.70;;
24143;SDS011;12307;50.828;6.080;2023-07-16T05:35:30;0.85;;;0.85;;
24143;SDS011;12307;50.828;6.080;2023-07-16T05:37:55;1.10;;;1.00;;
24143;SDS011;12307;50.828;6.080;2023-07-16T05:40:21;1.23;;;0.90;;
24143;SDS011;12307;50.828;6.080;2023-07-16T05:42:47;0.82;;;0.82;;
24143;SDS011;12307;50.828;6.080;2023-07-16T05:45:13;0.88;;;0.65;;
24143;SDS011;12307;50.828;6.080;2023-07-16T05:47:40;1.92;;;0.88;;
24143;SDS011;12307;50.828;6.080;2023-07-16T05:50:06;1.33;;;0.90;;
24143;SDS011;12307;50.828;6.080;2023-07-16T05:52:32;1.15;;;0.80;;
24143;SDS011;12307;50.828;6.080;2023-07-16T05:54:58;0.90;;;0.90;;
24143;SDS011;12307;50.828;6.080;2023-07-16T05:57:24;1.10;;;0.82;;
24143;SDS011;12307;50.828;6.080;2023-07-16T05:59:49;0.80;;;0.80;;
24143;SDS011;12307;50.828;6.080;2023-07-16T06:02:15;0.88;;;0.80;;
24143;SDS011;12307;50.828;6.080;2023-07-16T06:04:42;1.10;;;1.00;;
24143;SDS011;12307;50.828;6.080;2023-07-16T06:07:08;0.80;;;0.80;;
24143;SDS011;12307;50.828;6.080;2023-07-16T06:09:34;1.05;;;0.80;;
24143;SDS011;12307;50.828;6.080;2023-07-16T06:12:00;1.02;;;0.90;;
24143;SDS011;12307;50.828;6.080;2023-07-16T06:14:26;0.73;;;0.73;;
24143;SDS011;12307;50.828;6.080;2023-07-16T06:16:51;0.80;;;0.80;;
24143;SDS011;12307;50.828;6.080;2023-07-16T06:19:17;1.02;;;0.90;;
24143;SDS011;12307;50.828;6.080;2023-07-16T06:21:44;0.70;;;0.70;;
24143;SDS011;12307;50.828;6.080;2023-07-16T06:24:11;0.70;;;0.70;;
24143;SDS011;12307;50.828;6.080;2023-07-16T06:26:37;0.70;;;0.70;;
24143;SDS011;12307;50.828;6.080;2023-07-16T06:29:03;1.20;;;1.10;;
24143;SDS011;12307;50.828;6.080;2023-07-16T06:31:29;1.25;;;0.90;;
24143;SDS011;12307;50.828;6.080;2023-07-16T06:33:56;0.88;;;0.80;;
24143;SDS011;12307;50.828;6.080;2023-07-16T06:36:22;0.82;;;0.80;;
24143;SDS011;12307;50.828;6.080;2023-07-16T06:38:49;0.70;;;0.70;;
24143;SDS011;12307;50.828;6.080;2023-07-16T06:41:15;1.05;;;0.95;;
24143;SDS011;12307;50.828;6.080;2023-07-16T06:43:40;0.95;;;0.90;;
24143;SDS011;12307;50.828;6.080;2023-07-16T06:46:06;2.00;;;0.90;;
24143;SDS011;12307;50.828;6.080;2023-07-16T06:48:32;1.13;;;1.02;;
24143;SDS011;12307;50.828;6.080;2023-07-16T06:50:59;1.20;;;1.10;;
24143;SDS011;12307;50.828;6.080;2023-07-16T06:53:25;1.25;;;1.15;;
24143;SDS011;12307;50.828;6.080;2023-07-16T06:55:52;1.10;;;1.00;;
24143;SDS011;12307;50.828;6.080;2023-07-16T06:58:17;1.00;;;0.90;;
24143;SDS011;12307;50.828;6.080;2023-07-16T07:00:43;1.10;;;1.00;;
24143;SDS011;12307;50.828;6.080;2023-07-16T07:03:09;1.10;;;1.05;;
24143;SDS011;12307;50.828;6.080;2023-07-16T07:05:35;0.88;;;0.88;;
24143;SDS011;12307;50.828;6.080;2023-07-16T07:08:01;1.13;;;1.00;;
24143;SDS011;12307;50.828;6.080;2023-07-16T07:10:28;1.00;;;0.90;;
24143;SDS011;12307;50.828;6.080;2023-07-16T07:12:55;1.23;;;1.13;;
24143;SDS011;12307;50.828;6.080;2023-07-16T07:15:20;1.00;;;0.90;;
24143;SDS011;12307;50.828;6.080;2023-07-16T07:17:46;1.33;;;1.10;;
24143;SDS011;12307;50.828;6.080;2023-07-16T07:20:13;1.67;;;1.20;;
24143;SDS011;12307;50.828;6.080;2023-07-16T07:22:42;1.17;;;1.10;;
24143;SDS011;12307;50.828;6.080;2023-07-16T07:25:08;1.33;;;0.90;;
24143;SDS011;12307;50.828;6.080;2023-07-16T07:27:34;1.10;;;0.80;;
24143;SDS011;12307;50.828;6.080;2023-07-16T07:30:01;1.20;;;1.10;;
24143;SDS011;12307;50.828;6.080;2023-07-16T07:32:26;1.23;;;0.90;;
24143;SDS011;12307;50.828;6.080;2023-07-16T07:34:54;1.20;;;1.10;;
24143;SDS011;12307;50.828;6.080;2023-07-16T07:37:20;1.50;;;1.00;;
24143;SDS011;12307;50.828;6.080;2023-07-16T07:39:45;1.05;;;0.95;;
24143;SDS011;12307;50.828;6.080;2023-07-16T07:42:16;1.08;;;0.98;;
24143;SDS011;12307;50.828;6.080;2023-07-16T07:44:42;1.10;;;1.00;;
24143;SDS011;12307;50.828;6.080;2023-07-16T07:47:09;1.30;;;1.17;;
24143;SDS011;12307;50.828;6.080;2023-07-16T07:49:35;1.40;;;1.02;;
24143;SDS011;12307;50.828;6.080;2023-07-16T07:52:01;1.30;;;1.20;;
24143;SDS011;12307;50.828;6.080;2023-07-16T07:54:26;1.90;;;1.17;;
24143;SDS011;12307;50.828;6.080;2023-07-16T07:56:52;1.10;;;1.00;;
24143;SDS011;12307;50.828;6.080;2023-07-16T07:59:18;1.33;;;1.00;;
24143;SDS011;12307;50.828;6.080;2023-07-16T08:01:44;1.55;;;1.20;;
24143;SDS011;12307;50.828;6.080;2023-07-16T08:04:12;1.25;;;1.08;;
24143;SDS011;12307;50.828;6.080;2023-07-16T08:06:37;1.20;;;1.10;;
24143;SDS011;12307;50.828;6.080;2023-07-16T08:09:03;1.33;;;1.10;;
24143;SDS011;12307;50.828;6.080;2023-07-16T08:11:29;1.15;;;1.05;;
24143;SDS011;12307;50.828;6.080;2023-07-16T08:13:55;1.27;;;1.17;;
24143;SDS011;12307;50.828;6.080;2023-07-16T08:16:21;1.00;;;0.90;;
24143;SDS011;12307;50.828;6.080;2023-07-16T08:18:46;1.20;;;1.10;;
24143;SDS011;12307;50.828;6.080;2023-07-16T08:21:14;1.30;;;1.20;;
24143;SDS011;12307;50.828;6.080;2023-07-16T08:23:44;1.20;;;1.10;;
24143;SDS011;12307;50.828;6.080;2023-07-16T08:26:11;1.38;;;1.15;;
24143;SDS011;12307;50.828;6.080;2023-07-16T08:28:37;1.17;;;1.00;;
24143;SDS011;12307;50.828;6.080;2023-07-16T08:31:03;1.10;;;1.00;;
24143;SDS011;12307;50.828;6.080;2023-07-16T08:33:29;1.40;;;1.30;;
24143;SDS011;12307;50.828;6.080;2023-07-16T08:35:54;1.30;;;1.20;;
24143;SDS011;12307;50.828;6.080;2023-07-16T08:38:22;0.80;;;0.80;;
24143;SDS011;12307;50.828;6.080;2023-07-16T08:40:47;1.02;;;0.93;;
24143;SDS011;12307;50.828;6.080;2023-07-16T08:43:14;1.08;;;0.98;;
24143;SDS011;12307;50.828;6.080;2023-07-16T08:45:41;1.00;;;1.00;;
24143;SDS011;12307;50.828;6.080;2023-07-16T08:48:10;1.13;;;0.90;;
24143;SDS011;12307;50.828;6.080;2023-07-16T08:50:36;1.17;;;0.90;;
24143;SDS011;12307;50.828;6.080;2023-07-16T08:53:03;1.30;;;1.00;;
24143;SDS011;12307;50.828;6.080;2023-07-16T08:55:31;1.10;;;1.00;;
24143;SDS011;12307;50.828;6.080;2023-07-16T08:57:57;1.17;;;1.08;;
24143;SDS011;12307;50.828;6.080;2023-07-16T09:00:24;1.20;;;0.90;;
24143;SDS011;12307;50.828;6.080;2023-07-16T09:02:51;0.82;;;0.82;;
24143;SDS011;12307;50.828;6.080;2023-07-16T09:05:17;0.98;;;0.90;;
24143;SDS011;12307;50.828;6.080;2023-07-16T09:07:45;1.08;;;0.90;;
24143;SDS011;12307;50.828;6.080;2023-07-16T09:10:11;0.95;;;0.90;;
24143;SDS011;12307;50.828;6.080;2023-07-16T09:12:42;0.90;;;0.88;;
24143;SDS011;12307;50.828;6.080;2023-07-16T09:15:08;1.00;;;0.90;;
24143;SDS011;12307;50.828;6.080;2023-07-16T09:17:35;0.88;;;0.70;;
24143;SDS011;12307;50.828;6.080;2023-07-16T09:20:03;1.15;;;1.00;;
24143;SDS011;12307;50.828;6.080;2023-07-16T09:22:33;1.60;;;0.80;;
24143;SDS011;12307;50.828;6.080;2023-07-16T09:24:59;0.93;;;0.90;;
24143;SDS011;12307;50.828;6.080;2023-07-16T09:27:27;1.02;;;0.95;;
24143;SDS011;12307;50.828;6.080;2023-07-16T09:29:55;1.20;;;1.00;;
24143;SDS011;12307;50.828;6.080;2023-07-16T09:32:20;0.80;;;0.80;;
24143;SDS011;12307;50.828;6.080;2023-07-16T09:34:49;1.08;;;0.95;;
24143;SDS011;12307;50.828;6.080;2023-07-16T09:37:15;1.00;;;0.80;;
24143;SDS011;12307;50.828;6.080;2023-07-16T09:39:43;0.80;;;0.80;;
24143;SDS011;12307;50.828;6.080;2023-07-16T09:42:11;0.80;;;0.80;;
24143;SDS011;12307;50.828;6.080;2023-07-16T09:44:38;0.80;;;0.80;;
24143;SDS011;12307;50.828;6.080;2023-07-16T09:47:11;0.80;;;0.80;;
24143;SDS011;12307;50.828;6.080;2023-07-16T09:49:36;1.15;;;1.05;;
24143;SDS011;12307;50.828;6.080;2023-07-16T09:52:02;0.77;;;0.68;;
24143;SDS011;12307;50.828;6.080;2023-07-16T09:54:29;1.15;;;0.90;;
24143;SDS011;12307;50.828;6.080;2023-07-16T09:57:00;0.90;;;0.80;;
24143;SDS011;12307;50.828;6.080;2023-07-16T09:59:29;0.70;;;0.70;;
24143;SDS011;12307;50.828;6.080;2023-07-16T10:01:57;0.85;;;0.80;;
24143;SDS011;12307;50.828;6.080;2023-07-16T10:04:24;1.15;;;0.80;;
24143;SDS011;12307;50.828;6.080;2023-07-16T10:06:51;0.80;;;0.80;;
24143;SDS011;12307;50.828;6.080;2023-07-16T10:09:31;0.85;;;0.85;;
24143;SDS011;12307;50.828;6.080;2023-07-16T10:12:06;0.90;;;0.80;;
24143;SDS011;12307;50.828;6.080;2023-07-16T10:14:40;1.08;;;0.98;;
24143;SDS011;12307;50.828;6.080;2023-07-16T10:17:06;0.68;;;0.68;;
24143;SDS011;12307;50.828;6.080;2023-07-16T10:19:35;0.90;;;0.73;;
24143;SDS011;12307;50.828;6.080;2023-07-16T10:22:11;1.13;;;0.90;;
24143;SDS011;12307;50.828;6.080;2023-07-16T10:24:38;1.10;;;1.00;;
24143;SDS011;12307;50.828;6.080;2023-07-16T10:27:04;0.80;;;0.80;;
24143;SDS011;12307;50.828;6.080;2023-07-16T10:29:30;0.70;;;0.70;;
24143;SDS011;12307;50.828;6.080;2023-07-16T10:31:56;1.05;;;0.85;;
24143;SDS011;12307;50.828;6.080;2023-07-16T10:34:23;1.00;;;0.90;;
24143;SDS011;12307;50.828;6.080;2023-07-16T10:36:50;0.70;;;0.70;;
24143;SDS011;12307;50.828;6.080;2023-07-16T10:39:16;1.25;;;1.10;;
24143;SDS011;12307;50.828;6.080;2023-07-16T10:41:42;1.02;;;0.93;;
24143;SDS011;12307;50.828;6.080;2023-07-16T10:44:08;1.20;;;1.10;;
24143;SDS011;12307;50.828;6.080;2023-07-16T10:46:34;1.38;;;1.10;;
24143;SDS011;12307;50.828;6.080;2023-07-16T10:49:01;1.00;;;0.90;;
24143;SDS011;12307;50.828;6.080;2023-07-16T10:51:27;1.00;;;0.90;;
24143;SDS011;12307;50.828;6.080;2023-07-16T10:53:56;0.73;;;0.73;;
24143;SDS011;12307;50.828;6.080;2023-07-16T10:56:22;0.77;;;0.77;;
24143;SDS011;12307;50.828;6.080;2023-07-16T10:58:47;1.00;;;0.80;;
24143;SDS011;12307;50.828;6.080;2023-07-16T11:01:14;0.90;;;0.90;;
24143;SDS011;12307;50.828;6.080;2023-07-16T11:03:40;0.65;;;0.65;;
24143;SDS011;12307;50.828;6.080;2023-07-16T11:06:06;0.80;;;0.75;;
24143;SDS011;12307;50.828;6.080;2023-07-16T11:08:32;0.90;;;0.90;;
24143;SDS011;12307;50.828;6.080;2023-07-16T11:10:59;0.90;;;0.90;;
24143;SDS011;12307;50.828;6.080;2023-07-16T11:13:25;0.90;;;0.80;;
24143;SDS011;12307;50.828;6.080;2023-07-16T11:15:52;0.90;;;0.90;;
24143;SDS011;12307;50.828;6.080;2023-07-16T11:18:17;0.93;;;0.90;;
24143;SDS011;12307;50.828;6.080;2023-07-16T11:20:43;0.82;;;0.82;;
24143;SDS011;12307;50.828;6.080;2023-07-16T11:23:09;1.00;;;0.90;;
24143;SDS011;12307;50.828;6.080;2023-07-16T11:25:35;0.70;;;0.70;;
24143;SDS011;12307;50.828;6.080;2023-07-16T11:28:03;1.08;;;0.98;;
24143;SDS011;12307;50.828;6.080;2023-07-16T11:30:29;1.10;;;1.00;;
24143;SDS011;12307;50.828;6.080;2023-07-16T11:32:57;1.00;;;0.80;;
24143;SDS011;12307;50.828;6.080;2023-07-16T11:35:23;1.17;;;1.00;;
24143;SDS011;12307;50.828;6.080;2023-07-16T11:37:50;0.90;;;0.90;;
24143;SDS011;12307;50.828;6.080;2023-07-16T11:40:16;0.85;;;0.85;;
24143;SDS011;12307;50.828;6.080;2023-07-16T11:42:43;0.82;;;0.82;;
24143;SDS011;12307;50.828;6.080;2023-07-16T11:45:16;0.80;;;0.80;;
24143;SDS011;12307;50.828;6.080;2023-07-16T11:47:42;0.88;;;0.88;;
24143;SDS011;12307;50.828;6.080;2023-07-16T11:50:08;1.10;;;0.90;;
24143;SDS011;12307;50.828;6.080;2023-07-16T11:52:34;0.80;;;0.80;;
24143;SDS011;12307;50.828;6.080;2023-07-16T11:55:04;1.08;;;0.98;;
24143;SDS011;12307;50.828;6.080;2023-07-16T11:57:30;1.10;;;1.00;;
24143;SDS011;12307;50.828;6.080;2023-07-16T11:59:56;1.05;;;0.95;;
24143;SDS011;12307;50.828;6.080;2023-07-16T12:02:24;1.05;;;0.95;;
24143;SDS011;12307;50.828;6.080;2023-07-16T12:04:51;1.10;;;0.90;;
24143;SDS011;12307;50.828;6.080;2023-07-16T12:07:30;0.80;;;0.80;;
24143;SDS011;12307;50.828;6.080;2023-07-16T12:09:57;1.13;;;1.10;;
24143;SDS011;12307;50.828;6.080;2023-07-16T12:12:22;0.93;;;0.90;;
24143;SDS011;12307;50.828;6.080;2023-07-16T12:14:48;0.90;;;0.82;;
24143;SDS011;12307;50.828;6.080;2023-07-16T12:17:14;1.02;;;0.90;;
24143;SDS011;12307;50.828;6.080;2023-07-16T12:19:42;1.35;;;0.98;;
24143;SDS011;12307;50.828;6.080;2023-07-16T12:22:08;0.95;;;0.88;;
24143;SDS011;12307;50.828;6.080;2023-07-16T12:24:34;1.00;;;0.93;;
24143;SDS011;12307;50.828;6.080;2023-07-16T12:27:00;1.17;;;1.08;;
24143;SDS011;12307;50.828;6.080;2023-07-16T12:29:25;1.67;;;1.10;;
24143;SDS011;12307;50.828;6.080;2023-07-16T12:31:51;1.00;;;0.90;;
24143;SDS011;12307;50.828;6.080;2023-07-16T12:34:17;1.33;;;0.90;;
24143;SDS011;12307;50.828;6.080;2023-07-16T12:36:44;1.13;;;1.02;;
24143;SDS011;12307;50.828;6.080;2023-07-16T12:39:10;1.13;;;1.02;;
24143;SDS011;12307;50.828;6.080;2023-07-16T12:41:36;1.15;;;1.05;;
24143;SDS011;12307;50.828;6.080;2023-07-16T12:44:01;1.13;;;1.00;;
24143;SDS011;12307;50.828;6.080;2023-07-16T12:46:27;1.10;;;0.88;;
24143;SDS011;12307;50.828;6.080;2023-07-16T12:48:53;0.80;;;0.80;;
24143;SDS011;12307;50.828;6.080;2023-07-16T12:51:19;1.88;;;1.02;;
24143;SDS011;12307;50.828;6.080;2023-07-16T12:53:46;1.08;;;0.98;;
24143;SDS011;12307;50.828;6.080;2023-07-16T12:56:12;1.45;;;0.98;;
24143;SDS011;12307;50.828;6.080;2023-07-16T12:58:38;0.88;;;0.88;;
24143;SDS011;12307;50.828;6.080;2023-07-16T13:01:03;1.10;;;1.00;;
24143;SDS011;12307;50.828;6.080;2023-07-16T13:03:29;0.85;;;0.85;;
24143;SDS011;12307;50.828;6.080;2023-07-16T13:05:55;0.90;;;0.80;;
24143;SDS011;12307;50.828;6.080;2023-07-16T13:08:20;1.13;;;0.90;;
24143;SDS011;12307;50.828;6.080;2023-07-16T13:10:47;0.80;;;0.80;;
24143;SDS011;12307;50.828;6.080;2023-07-16T13:13:13;1.13;;;1.00;;
24143;SDS011;12307;50.828;6.080;2023-07-16T13:15:39;1.20;;;1.10;;
24143;SDS011;12307;50.828;6.080;2023-07-16T13:18:05;0.60;;;0.60;;
24143;SDS011;12307;50.828;6.080;2023-07-16T13:20:30;0.88;;;0.88;;
24143;SDS011;12307;50.828;6.080;2023-07-16T13:22:56;0.80;;;0.80;;
24143;SDS011;12307;50.828;6.080;2023-07-16T13:25:22;0.88;;;0.80;;
24143;SDS011;12307;50.828;6.080;2023-07-16T13:27:49;0.85;;;0.85;;
24143;SDS011;12307;50.828;6.080;2023-07-16T13:30:15;1.00;;;0.90;;
24143;SDS011;12307;50.828;6.080;2023-07-16T13:32:41;1.08;;;0.98;;
24143;SDS011;12307;50.828;6.080;2023-07-16T13:35:07;0.70;;;0.70;;
24143;SDS011;12307;50.828;6.080;2023-07-16T13:37:33;1.30;;;1.10;;
24143;SDS011;12307;50.828;6.080;2023-07-16T13:39:59;1.00;;;0.88;;
24143;SDS011;12307;50.828;6.080;2023-07-16T13:42:25;1.13;;;1.02;;
24143;SDS011;12307;50.828;6.080;2023-07-16T13:44:52;0.80;;;0.80;;
24143;SDS011;12307;50.828;6.080;2023-07-16T13:47:18;1.35;;;1.00;;
24143;SDS011;12307;50.828;6.080;2023-07-16T13:49:43;0.93;;;0.85;;
24143;SDS011;12307;50.828;6.080;2023-07-16T13:52:09;1.10;;;1.00;;
24143;SDS011;12307;50.828;6.080;2023-07-16T13:54:36;1.15;;;1.00;;
24143;SDS011;12307;50.828;6.080;2023-07-16T13:57:02;0.98;;;0.90;;
24143;SDS011;12307;50.828;6.080;2023-07-16T13:59:28;1.10;;;1.00;;
24143;SDS011;12307;50.828;6.080;2023-07-16T14:02:00;1.10;;;1.00;;
24143;SDS011;12307;50.828;6.080;2023-07-16T14:04:26;1.00;;;1.00;;
24143;SDS011;12307;50.828;6.080;2023-07-16T14:06:52;1.00;;;0.90;;
24143;SDS011;12307;50.828;6.080;2023-07-16T14:09:18;1.23;;;1.10;;
24143;SDS011;12307;50.828;6.080;2023-07-16T14:11:44;1.10;;;1.00;;
24143;SDS011;12307;50.828;6.080;2023-07-16T14:14:12;0.90;;;0.80;;
24143;SDS011;12307;50.828;6.080;2023-07-16T14:16:38;1.10;;;1.00;;
24143;SDS011;12307;50.828;6.080;2023-07-16T14:19:05;0.95;;;0.88;;
24143;SDS011;12307;50.828;6.080;2023-07-16T14:21:31;1.15;;;0.90;;
24143;SDS011;12307;50.828;6.080;2023-07-16T14:23:57;1.00;;;0.90;;
24143;SDS011;12307;50.828;6.080;2023-07-16T14:26:23;1.00;;;0.90;;
24143;SDS011;12307;50.828;6.080;2023-07-16T14:28:49;1.20;;;1.10;;
24143;SDS011;12307;50.828;6.080;2023-07-16T14:31:14;1.15;;;1.05;;
24143;SDS011;12307;50.828;6.080;2023-07-16T14:33:40;1.08;;;0.80;;
24143;SDS011;12307;50.828;6.080;2023-07-16T14:36:07;1.42;;;1.10;;
24143;SDS011;12307;50.828;6.080;2023-07-16T14:38:33;0.80;;;0.80;;
24143;SDS011;12307;50.828;6.080;2023-07-16T14:40:59;1.02;;;0.90;;
24143;SDS011;12307;50.828;6.080;2023-07-16T14:43:25;0.80;;;0.70;;
24143;SDS011;12307;50.828;6.080;2023-07-16T14:45:51;1.10;;;1.00;;